Terminal Aerodrome Forecast
Issued by NWS

Home | Current Version | Previous Version | Text Only | Print | Product List | Glossary On
Versions: 1 2 3 4 5 6 7 8 9 10 11 12 13 14 15 16 17 18 19 20 21 22 23
000
FTUS43 KIND 201700
TAFBMG
TAF
KBMG 201724Z 2018/2118 22012KT P6SM SCT040 BKN250
     FM210000 22007KT P6SM FEW040 SCT080 BKN250
      TEMPO 2104/2108 3SM TSRA BKN025 OVC040CB
     FM210800 23008KT P6SM SCT012 SCT080 BKN250
     FM211300 26008KT P6SM SCT012
     FM211500 29014G21KT P6SM SCT025=

USA.gov is the U.S. government's official web portal to all federal, state and local government web resources and services.